sensor_id;sensor_type;location;lat;lon;timestamp;P1;durP1;ratioP1;P2;durP2;ratioP2
43835;SDS011;39345;43.964;25.340;2022-10-16T00:01:22;19.48;;;10.95;;
43835;SDS011;39345;43.964;25.340;2022-10-16T00:03:50;21.23;;;11.30;;
43835;SDS011;39345;43.964;25.340;2022-10-16T00:06:19;18.65;;;11.35;;
43835;SDS011;39345;43.964;25.340;2022-10-16T00:08:46;16.90;;;10.45;;
43835;SDS011;39345;43.964;25.340;2022-10-16T00:13:42;18.98;;;11.18;;
43835;SDS011;39345;43.964;25.340;2022-10-16T00:16:10;20.45;;;10.95;;
43835;SDS011;39345;43.964;25.340;2022-10-16T00:18:39;16.88;;;10.95;;
43835;SDS011;39345;43.964;25.340;2022-10-16T00:21:07;19.00;;;10.32;;
43835;SDS011;39345;43.964;25.340;2022-10-16T00:23:35;22.08;;;10.88;;
43835;SDS011;39345;43.964;25.340;2022-10-16T00:26:04;16.33;;;10.85;;
43835;SDS011;39345;43.964;25.340;2022-10-16T00:28:32;17.88;;;11.18;;
43835;SDS011;39345;43.964;25.340;2022-10-16T00:31:10;18.83;;;11.40;;
43835;SDS011;39345;43.964;25.340;2022-10-16T00:33:38;19.00;;;11.38;;
43835;SDS011;39345;43.964;25.340;2022-10-16T00:36:07;16.63;;;11.48;;
43835;SDS011;39345;43.964;25.340;2022-10-16T00:38:34;19.48;;;12.02;;
43835;SDS011;39345;43.964;25.340;2022-10-16T00:41:04;18.90;;;12.55;;
43835;SDS011;39345;43.964;25.340;2022-10-16T00:46:16;22.02;;;11.98;;
43835;SDS011;39345;43.964;25.340;2022-10-16T00:51:19;21.13;;;12.43;;
43835;SDS011;39345;43.964;25.340;2022-10-16T00:53:48;21.83;;;12.55;;
43835;SDS011;39345;43.964;25.340;2022-10-16T00:56:16;21.17;;;12.48;;
43835;SDS011;39345;43.964;25.340;2022-10-16T00:58:44;23.13;;;13.02;;
43835;SDS011;39345;43.964;25.340;2022-10-16T01:01:11;21.52;;;14.35;;
43835;SDS011;39345;43.964;25.340;2022-10-16T01:03:39;20.42;;;13.25;;
43835;SDS011;39345;43.964;25.340;2022-10-16T01:13:42;21.35;;;14.30;;
43835;SDS011;39345;43.964;25.340;2022-10-16T01:16:15;20.08;;;13.90;;
43835;SDS011;39345;43.964;25.340;2022-10-16T01:18:45;20.92;;;14.00;;
43835;SDS011;39345;43.964;25.340;2022-10-16T01:21:16;25.73;;;15.38;;
43835;SDS011;39345;43.964;25.340;2022-10-16T01:26:31;24.95;;;14.80;;
43835;SDS011;39345;43.964;25.340;2022-10-16T01:29:12;22.40;;;14.52;;
43835;SDS011;39345;43.964;25.340;2022-10-16T01:31:43;22.85;;;15.65;;
43835;SDS011;39345;43.964;25.340;2022-10-16T01:36:41;26.02;;;16.88;;
43835;SDS011;39345;43.964;25.340;2022-10-16T01:39:09;21.20;;;14.95;;
43835;SDS011;39345;43.964;25.340;2022-10-16T01:41:38;26.58;;;15.93;;
43835;SDS011;39345;43.964;25.340;2022-10-16T01:44:08;23.60;;;17.10;;
43835;SDS011;39345;43.964;25.340;2022-10-16T01:46:38;24.70;;;16.17;;
43835;SDS011;39345;43.964;25.340;2022-10-16T01:49:06;27.08;;;17.15;;
43835;SDS011;39345;43.964;25.340;2022-10-16T01:51:35;26.17;;;16.50;;
43835;SDS011;39345;43.964;25.340;2022-10-16T01:54:04;27.52;;;16.50;;
43835;SDS011;39345;43.964;25.340;2022-10-16T01:56:32;27.70;;;16.98;;
43835;SDS011;39345;43.964;25.340;2022-10-16T01:59:01;29.77;;;17.80;;
43835;SDS011;39345;43.964;25.340;2022-10-16T02:01:30;25.67;;;17.17;;
43835;SDS011;39345;43.964;25.340;2022-10-16T02:03:59;30.23;;;17.48;;
43835;SDS011;39345;43.964;25.340;2022-10-16T02:06:28;26.63;;;17.60;;
43835;SDS011;39345;43.964;25.340;2022-10-16T02:08:56;31.52;;;18.30;;
43835;SDS011;39345;43.964;25.340;2022-10-16T02:11:24;29.52;;;17.83;;
43835;SDS011;39345;43.964;25.340;2022-10-16T02:13:53;32.13;;;18.38;;
43835;SDS011;39345;43.964;25.340;2022-10-16T02:16:23;29.10;;;19.05;;
43835;SDS011;39345;43.964;25.340;2022-10-16T02:18:50;28.17;;;18.60;;
43835;SDS011;39345;43.964;25.340;2022-10-16T02:21:32;29.13;;;19.25;;
43835;SDS011;39345;43.964;25.340;2022-10-16T02:24:14;29.17;;;18.95;;
43835;SDS011;39345;43.964;25.340;2022-10-16T02:26:52;32.10;;;19.40;;
43835;SDS011;39345;43.964;25.340;2022-10-16T02:29:22;31.05;;;19.52;;
43835;SDS011;39345;43.964;25.340;2022-10-16T02:31:52;28.85;;;19.50;;
43835;SDS011;39345;43.964;25.340;2022-10-16T02:34:21;32.35;;;19.73;;
43835;SDS011;39345;43.964;25.340;2022-10-16T02:36:50;27.05;;;19.38;;
43835;SDS011;39345;43.964;25.340;2022-10-16T02:39:18;30.13;;;20.15;;
43835;SDS011;39345;43.964;25.340;2022-10-16T02:41:47;35.33;;;20.23;;
43835;SDS011;39345;43.964;25.340;2022-10-16T02:44:14;31.85;;;21.15;;
43835;SDS011;39345;43.964;25.340;2022-10-16T02:46:42;30.00;;;20.02;;
43835;SDS011;39345;43.964;25.340;2022-10-16T02:49:09;33.25;;;20.50;;
43835;SDS011;39345;43.964;25.340;2022-10-16T02:51:37;35.13;;;20.38;;
43835;SDS011;39345;43.964;25.340;2022-10-16T02:54:05;33.10;;;21.13;;
43835;SDS011;39345;43.964;25.340;2022-10-16T02:56:32;31.52;;;21.05;;
43835;SDS011;39345;43.964;25.340;2022-10-16T02:58:59;31.90;;;21.15;;
43835;SDS011;39345;43.964;25.340;2022-10-16T03:01:27;32.65;;;21.38;;
43835;SDS011;39345;43.964;25.340;2022-10-16T03:03:54;31.13;;;20.83;;
43835;SDS011;39345;43.964;25.340;2022-10-16T03:06:22;30.73;;;21.20;;
43835;SDS011;39345;43.964;25.340;2022-10-16T03:08:49;33.25;;;21.08;;
43835;SDS011;39345;43.964;25.340;2022-10-16T03:11:17;30.10;;;21.15;;
43835;SDS011;39345;43.964;25.340;2022-10-16T03:13:44;34.03;;;21.42;;
43835;SDS011;39345;43.964;25.340;2022-10-16T03:16:12;30.08;;;20.83;;
43835;SDS011;39345;43.964;25.340;2022-10-16T03:18:39;32.88;;;21.17;;
43835;SDS011;39345;43.964;25.340;2022-10-16T03:21:07;31.58;;;20.33;;
43835;SDS011;39345;43.964;25.340;2022-10-16T03:23:34;30.85;;;21.27;;
43835;SDS011;39345;43.964;25.340;2022-10-16T03:26:02;33.40;;;21.83;;
43835;SDS011;39345;43.964;25.340;2022-10-16T03:28:29;33.33;;;20.95;;
43835;SDS011;39345;43.964;25.340;2022-10-16T03:30:57;32.45;;;22.25;;
43835;SDS011;39345;43.964;25.340;2022-10-16T03:33:24;32.92;;;21.80;;
43835;SDS011;39345;43.964;25.340;2022-10-16T03:35:52;34.08;;;22.13;;
43835;SDS011;39345;43.964;25.340;2022-10-16T03:38:20;31.83;;;22.30;;
43835;SDS011;39345;43.964;25.340;2022-10-16T03:40:48;35.00;;;21.27;;
43835;SDS011;39345;43.964;25.340;2022-10-16T03:43:15;32.40;;;21.10;;
43835;SDS011;39345;43.964;25.340;2022-10-16T03:45:43;29.08;;;21.08;;
43835;SDS011;39345;43.964;25.340;2022-10-16T03:48:10;32.85;;;21.35;;
43835;SDS011;39345;43.964;25.340;2022-10-16T03:50:38;35.17;;;22.67;;
43835;SDS011;39345;43.964;25.340;2022-10-16T03:53:05;32.70;;;21.83;;
43835;SDS011;39345;43.964;25.340;2022-10-16T03:55:34;32.50;;;21.35;;
43835;SDS011;39345;43.964;25.340;2022-10-16T03:58:01;32.55;;;21.45;;
43835;SDS011;39345;43.964;25.340;2022-10-16T04:00:28;32.35;;;22.33;;
43835;SDS011;39345;43.964;25.340;2022-10-16T04:02:56;33.10;;;22.05;;
43835;SDS011;39345;43.964;25.340;2022-10-16T04:05:23;34.65;;;21.08;;
43835;SDS011;39345;43.964;25.340;2022-10-16T04:07:51;32.65;;;22.23;;
43835;SDS011;39345;43.964;25.340;2022-10-16T04:10:18;32.60;;;23.60;;
43835;SDS011;39345;43.964;25.340;2022-10-16T04:12:46;32.50;;;22.60;;
43835;SDS011;39345;43.964;25.340;2022-10-16T04:15:13;33.03;;;22.35;;
43835;SDS011;39345;43.964;25.340;2022-10-16T04:17:40;35.28;;;23.98;;
43835;SDS011;39345;43.964;25.340;2022-10-16T04:20:08;34.78;;;24.05;;
43835;SDS011;39345;43.964;25.340;2022-10-16T04:22:35;37.13;;;23.98;;
43835;SDS011;39345;43.964;25.340;2022-10-16T04:25:03;35.80;;;24.02;;
43835;SDS011;39345;43.964;25.340;2022-10-16T04:27:30;36.70;;;24.05;;
43835;SDS011;39345;43.964;25.340;2022-10-16T04:29:59;33.95;;;23.52;;
43835;SDS011;39345;43.964;25.340;2022-10-16T04:32:26;38.42;;;24.50;;
43835;SDS011;39345;43.964;25.340;2022-10-16T04:34:54;33.47;;;23.05;;
43835;SDS011;39345;43.964;25.340;2022-10-16T04:37:24;37.35;;;25.13;;
43835;SDS011;39345;43.964;25.340;2022-10-16T04:39:53;35.60;;;24.08;;
43835;SDS011;39345;43.964;25.340;2022-10-16T04:42:20;38.17;;;24.58;;
43835;SDS011;39345;43.964;25.340;2022-10-16T04:44:48;36.80;;;23.60;;
43835;SDS011;39345;43.964;25.340;2022-10-16T04:47:15;35.38;;;23.05;;
43835;SDS011;39345;43.964;25.340;2022-10-16T04:49:43;36.60;;;23.98;;
43835;SDS011;39345;43.964;25.340;2022-10-16T04:52:10;37.97;;;25.30;;
43835;SDS011;39345;43.964;25.340;2022-10-16T04:54:38;38.28;;;24.35;;
43835;SDS011;39345;43.964;25.340;2022-10-16T04:57:05;38.50;;;25.65;;
43835;SDS011;39345;43.964;25.340;2022-10-16T04:59:33;39.55;;;25.15;;
43835;SDS011;39345;43.964;25.340;2022-10-16T05:02:00;36.40;;;24.42;;
43835;SDS011;39345;43.964;25.340;2022-10-16T05:04:27;37.25;;;25.20;;
43835;SDS011;39345;43.964;25.340;2022-10-16T05:06:55;40.38;;;25.17;;
43835;SDS011;39345;43.964;25.340;2022-10-16T05:09:22;38.42;;;24.92;;
43835;SDS011;39345;43.964;25.340;2022-10-16T05:11:50;36.10;;;25.23;;
43835;SDS011;39345;43.964;25.340;2022-10-16T05:14:17;36.13;;;24.42;;
43835;SDS011;39345;43.964;25.340;2022-10-16T05:16:45;36.38;;;25.02;;
43835;SDS011;39345;43.964;25.340;2022-10-16T05:19:14;35.92;;;22.98;;
43835;SDS011;39345;43.964;25.340;2022-10-16T05:21:54;35.65;;;22.60;;
43835;SDS011;39345;43.964;25.340;2022-10-16T05:24:24;36.33;;;23.95;;
43835;SDS011;39345;43.964;25.340;2022-10-16T05:26:52;33.90;;;24.48;;
43835;SDS011;39345;43.964;25.340;2022-10-16T05:29:20;33.67;;;22.90;;
43835;SDS011;39345;43.964;25.340;2022-10-16T05:31:49;33.72;;;23.00;;
43835;SDS011;39345;43.964;25.340;2022-10-16T05:34:17;35.92;;;23.48;;
43835;SDS011;39345;43.964;25.340;2022-10-16T05:36:46;33.03;;;23.13;;
43835;SDS011;39345;43.964;25.340;2022-10-16T05:39:14;37.10;;;23.90;;
43835;SDS011;39345;43.964;25.340;2022-10-16T05:41:42;37.10;;;24.58;;
43835;SDS011;39345;43.964;25.340;2022-10-16T05:44:10;34.65;;;23.67;;
43835;SDS011;39345;43.964;25.340;2022-10-16T05:46:37;36.63;;;23.75;;
43835;SDS011;39345;43.964;25.340;2022-10-16T05:49:05;35.33;;;23.60;;
43835;SDS011;39345;43.964;25.340;2022-10-16T05:51:32;31.92;;;22.65;;
43835;SDS011;39345;43.964;25.340;2022-10-16T05:53:59;33.95;;;22.85;;
43835;SDS011;39345;43.964;25.340;2022-10-16T05:56:27;34.10;;;22.63;;
43835;SDS011;39345;43.964;25.340;2022-10-16T05:58:55;34.60;;;24.20;;
43835;SDS011;39345;43.964;25.340;2022-10-16T06:01:22;31.17;;;22.08;;
43835;SDS011;39345;43.964;25.340;2022-10-16T06:03:51;30.00;;;22.33;;
43835;SDS011;39345;43.964;25.340;2022-10-16T06:06:20;34.83;;;24.02;;
43835;SDS011;39345;43.964;25.340;2022-10-16T06:08:48;35.72;;;23.58;;
43835;SDS011;39345;43.964;25.340;2022-10-16T06:11:16;33.05;;;23.35;;
43835;SDS011;39345;43.964;25.340;2022-10-16T06:13:44;30.85;;;22.33;;
43835;SDS011;39345;43.964;25.340;2022-10-16T06:16:12;33.97;;;24.25;;
43835;SDS011;39345;43.964;25.340;2022-10-16T06:18:39;26.30;;;20.38;;
43835;SDS011;39345;43.964;25.340;2022-10-16T06:21:08;27.38;;;19.70;;
43835;SDS011;39345;43.964;25.340;2022-10-16T06:23:36;25.52;;;19.67;;
43835;SDS011;39345;43.964;25.340;2022-10-16T06:26:07;29.77;;;21.40;;
43835;SDS011;39345;43.964;25.340;2022-10-16T06:28:35;26.70;;;19.15;;
43835;SDS011;39345;43.964;25.340;2022-10-16T06:31:03;23.27;;;19.00;;
43835;SDS011;39345;43.964;25.340;2022-10-16T06:33:34;21.73;;;18.20;;
43835;SDS011;39345;43.964;25.340;2022-10-16T06:36:02;23.58;;;18.92;;
43835;SDS011;39345;43.964;25.340;2022-10-16T06:38:30;21.45;;;16.17;;
43835;SDS011;39345;43.964;25.340;2022-10-16T06:40:58;23.25;;;17.02;;
43835;SDS011;39345;43.964;25.340;2022-10-16T06:43:26;22.30;;;16.58;;
43835;SDS011;39345;43.964;25.340;2022-10-16T06:45:53;20.23;;;15.77;;
43835;SDS011;39345;43.964;25.340;2022-10-16T06:48:22;19.92;;;15.13;;
43835;SDS011;39345;43.964;25.340;2022-10-16T06:51:00;20.95;;;15.60;;
43835;SDS011;39345;43.964;25.340;2022-10-16T06:53:28;20.08;;;16.70;;
43835;SDS011;39345;43.964;25.340;2022-10-16T06:56:10;23.42;;;18.65;;
43835;SDS011;39345;43.964;25.340;2022-10-16T06:58:37;23.10;;;17.33;;
43835;SDS011;39345;43.964;25.340;2022-10-16T07:01:05;22.40;;;18.83;;
43835;SDS011;39345;43.964;25.340;2022-10-16T07:03:35;28.23;;;20.65;;
43835;SDS011;39345;43.964;25.340;2022-10-16T07:06:06;24.80;;;20.02;;
43835;SDS011;39345;43.964;25.340;2022-10-16T07:08:35;29.17;;;18.52;;
43835;SDS011;39345;43.964;25.340;2022-10-16T07:11:03;24.60;;;17.83;;
43835;SDS011;39345;43.964;25.340;2022-10-16T07:13:34;31.10;;;20.40;;
43835;SDS011;39345;43.964;25.340;2022-10-16T07:16:06;28.55;;;20.38;;
43835;SDS011;39345;43.964;25.340;2022-10-16T07:18:33;25.40;;;18.13;;
43835;SDS011;39345;43.964;25.340;2022-10-16T07:21:09;23.40;;;17.90;;
43835;SDS011;39345;43.964;25.340;2022-10-16T07:23:36;24.15;;;17.52;;
43835;SDS011;39345;43.964;25.340;2022-10-16T07:26:05;29.00;;;18.10;;
43835;SDS011;39345;43.964;25.340;2022-10-16T07:28:33;28.83;;;19.00;;
43835;SDS011;39345;43.964;25.340;2022-10-16T07:31:02;25.13;;;18.48;;
43835;SDS011;39345;43.964;25.340;2022-10-16T07:33:30;23.23;;;17.50;;
43835;SDS011;39345;43.964;25.340;2022-10-16T07:35:58;24.02;;;16.95;;
43835;SDS011;39345;43.964;25.340;2022-10-16T07:38:25;23.95;;;18.08;;
43835;SDS011;39345;43.964;25.340;2022-10-16T07:40:57;21.20;;;15.25;;
43835;SDS011;39345;43.964;25.340;2022-10-16T07:43:25;25.02;;;15.85;;
43835;SDS011;39345;43.964;25.340;2022-10-16T07:45:53;21.05;;;16.13;;
43835;SDS011;39345;43.964;25.340;2022-10-16T07:48:28;20.90;;;15.02;;
43835;SDS011;39345;43.964;25.340;2022-10-16T07:51:01;19.98;;;14.05;;
43835;SDS011;39345;43.964;25.340;2022-10-16T07:53:29;17.48;;;13.30;;
43835;SDS011;39345;43.964;25.340;2022-10-16T07:55:57;19.35;;;12.68;;
43835;SDS011;39345;43.964;25.340;2022-10-16T07:58:26;19.83;;;13.15;;
43835;SDS011;39345;43.964;25.340;2022-10-16T08:00:54;16.80;;;12.40;;
43835;SDS011;39345;43.964;25.340;2022-10-16T08:03:22;19.85;;;12.70;;
43835;SDS011;39345;43.964;25.340;2022-10-16T08:05:50;19.75;;;12.48;;
43835;SDS011;39345;43.964;25.340;2022-10-16T08:08:17;20.45;;;12.73;;
43835;SDS011;39345;43.964;25.340;2022-10-16T08:10:45;18.02;;;12.65;;
43835;SDS011;39345;43.964;25.340;2022-10-16T08:13:12;17.05;;;12.50;;
43835;SDS011;39345;43.964;25.340;2022-10-16T08:15:42;21.52;;;11.18;;
43835;SDS011;39345;43.964;25.340;2022-10-16T08:18:10;19.05;;;11.02;;
43835;SDS011;39345;43.964;25.340;2022-10-16T08:20:38;18.05;;;11.38;;
43835;SDS011;39345;43.964;25.340;2022-10-16T08:23:06;16.55;;;10.55;;
43835;SDS011;39345;43.964;25.340;2022-10-16T08:25:36;18.95;;;10.55;;
43835;SDS011;39345;43.964;25.340;2022-10-16T08:28:05;16.10;;;10.25;;
43835;SDS011;39345;43.964;25.340;2022-10-16T08:30:32;12.73;;;9.85;;
43835;SDS011;39345;43.964;25.340;2022-10-16T08:33:01;15.85;;;9.95;;
43835;SDS011;39345;43.964;25.340;2022-10-16T08:35:28;15.07;;;9.45;;
43835;SDS011;39345;43.964;25.340;2022-10-16T08:37:56;18.17;;;9.93;;
43835;SDS011;39345;43.964;25.340;2022-10-16T08:47:56;16.83;;;8.77;;
43835;SDS011;39345;43.964;25.340;2022-10-16T08:50:28;13.32;;;8.25;;
43835;SDS011;39345;43.964;25.340;2022-10-16T08:52:56;42.03;;;21.23;;
43835;SDS011;39345;43.964;25.340;2022-10-16T08:55:31;14.32;;;7.93;;
43835;SDS011;39345;43.964;25.340;2022-10-16T08:58:00;15.25;;;8.43;;
43835;SDS011;39345;43.964;25.340;2022-10-16T09:00:28;13.90;;;8.98;;
43835;SDS011;39345;43.964;25.340;2022-10-16T09:06:13;18.65;;;9.65;;
43835;SDS011;39345;43.964;25.340;2022-10-16T09:13:27;10.45;;;7.13;;
43835;SDS011;39345;43.964;25.340;2022-10-16T09:15:58;15.65;;;10.02;;
43835;SDS011;39345;43.964;25.340;2022-10-16T09:18:39;10.00;;;6.60;;
43835;SDS011;39345;43.964;25.340;2022-10-16T09:21:10;11.40;;;7.47;;
43835;SDS011;39345;43.964;25.340;2022-10-16T09:23:39;31.30;;;19.02;;
43835;SDS011;39345;43.964;25.340;2022-10-16T09:26:10;14.48;;;8.45;;
43835;SDS011;39345;43.964;25.340;2022-10-16T09:28:38;19.75;;;13.63;;
43835;SDS011;39345;43.964;25.340;2022-10-16T09:31:10;13.30;;;7.20;;
43835;SDS011;39345;43.964;25.340;2022-10-16T09:33:39;13.00;;;8.02;;
43835;SDS011;39345;43.964;25.340;2022-10-16T09:36:08;11.82;;;7.85;;
43835;SDS011;39345;43.964;25.340;2022-10-16T09:38:36;10.88;;;7.00;;
43835;SDS011;39345;43.964;25.340;2022-10-16T09:41:13;15.55;;;7.85;;
43835;SDS011;39345;43.964;25.340;2022-10-16T09:43:46;16.52;;;6.90;;
43835;SDS011;39345;43.964;25.340;2022-10-16T09:49:19;11.13;;;7.25;;
43835;SDS011;39345;43.964;25.340;2022-10-16T09:51:47;12.57;;;6.25;;
43835;SDS011;39345;43.964;25.340;2022-10-16T09:54:17;12.07;;;6.90;;
43835;SDS011;39345;43.964;25.340;2022-10-16T09:56:44;54.25;;;33.20;;
43835;SDS011;39345;43.964;25.340;2022-10-16T09:59:16;15.73;;;8.30;;
43835;SDS011;39345;43.964;25.340;2022-10-16T10:01:48;92.93;;;51.17;;
43835;SDS011;39345;43.964;25.340;2022-10-16T10:04:17;31.83;;;18.60;;
43835;SDS011;39345;43.964;25.340;2022-10-16T10:09:17;19.27;;;11.32;;
43835;SDS011;39345;43.964;25.340;2022-10-16T10:12:04;84.32;;;53.03;;
43835;SDS011;39345;43.964;25.340;2022-10-16T10:14:35;12.35;;;6.93;;
43835;SDS011;39345;43.964;25.340;2022-10-16T10:19:51;10.25;;;6.10;;
43835;SDS011;39345;43.964;25.340;2022-10-16T10:22:26;10.48;;;6.20;;
43835;SDS011;39345;43.964;25.340;2022-10-16T10:27:28;24.45;;;13.60;;
43835;SDS011;39345;43.964;25.340;2022-10-16T10:32:36;8.43;;;5.65;;
43835;SDS011;39345;43.964;25.340;2022-10-16T10:38:05;9.60;;;5.57;;
43835;SDS011;39345;43.964;25.340;2022-10-16T10:40:40;12.68;;;5.75;;
43835;SDS011;39345;43.964;25.340;2022-10-16T10:45:41;9.88;;;6.03;;
43835;SDS011;39345;43.964;25.340;2022-10-16T10:50:45;10.43;;;6.20;;
43835;SDS011;39345;43.964;25.340;2022-10-16T10:53:18;12.57;;;6.80;;
43835;SDS011;39345;43.964;25.340;2022-10-16T10:55:52;15.82;;;10.38;;
43835;SDS011;39345;43.964;25.340;2022-10-16T11:01:09;13.38;;;7.60;;
43835;SDS011;39345;43.964;25.340;2022-10-16T11:06:19;38.95;;;24.33;;
43835;SDS011;39345;43.964;25.340;2022-10-16T11:08:56;18.30;;;11.38;;
43835;SDS011;39345;43.964;25.340;2022-10-16T11:11:47;10.95;;;5.78;;
43835;SDS011;39345;43.964;25.340;2022-10-16T11:27:23;13.70;;;6.78;;
43835;SDS011;39345;43.964;25.340;2022-10-16T11:29:55;8.77;;;6.10;;
43835;SDS011;39345;43.964;25.340;2022-10-16T11:32:28;12.02;;;5.97;;
43835;SDS011;39345;43.964;25.340;2022-10-16T11:34:59;8.23;;;5.00;;
43835;SDS011;39345;43.964;25.340;2022-10-16T11:37:32;7.75;;;5.60;;
43835;SDS011;39345;43.964;25.340;2022-10-16T11:42:52;13.75;;;5.30;;
43835;SDS011;39345;43.964;25.340;2022-10-16T11:45:27;11.77;;;5.88;;
43835;SDS011;39345;43.964;25.340;2022-10-16T11:48:00;13.20;;;6.60;;
43835;SDS011;39345;43.964;25.340;2022-10-16T11:50:51;9.23;;;5.93;;
43835;SDS011;39345;43.964;25.340;2022-10-16T11:56:03;7.97;;;5.07;;
43835;SDS011;39345;43.964;25.340;2022-10-16T11:58:33;8.93;;;5.13;;
43835;SDS011;39345;43.964;25.340;2022-10-16T12:06:12;8.27;;;5.43;;
43835;SDS011;39345;43.964;25.340;2022-10-16T12:08:44;9.05;;;5.20;;
43835;SDS011;39345;43.964;25.340;2022-10-16T12:16:54;7.38;;;5.00;;
43835;SDS011;39345;43.964;25.340;2022-10-16T12:19:22;6.72;;;4.50;;
43835;SDS011;39345;43.964;25.340;2022-10-16T12:21:50;10.70;;;5.10;;
43835;SDS011;39345;43.964;25.340;2022-10-16T12:24:21;10.57;;;6.93;;
43835;SDS011;39345;43.964;25.340;2022-10-16T12:26:51;11.77;;;6.90;;
43835;SDS011;39345;43.964;25.340;2022-10-16T12:31:47;7.78;;;4.53;;
43835;SDS011;39345;43.964;25.340;2022-10-16T12:34:26;7.68;;;4.82;;
43835;SDS011;39345;43.964;25.340;2022-10-16T12:36:55;8.43;;;3.97;;
43835;SDS011;39345;43.964;25.340;2022-10-16T12:39:23;8.10;;;4.28;;
43835;SDS011;39345;43.964;25.340;2022-10-16T12:42:02;8.95;;;4.50;;
43835;SDS011;39345;43.964;25.340;2022-10-16T12:44:35;10.30;;;4.65;;
43835;SDS011;39345;43.964;25.340;2022-10-16T12:47:03;8.35;;;4.68;;
43835;SDS011;39345;43.964;25.340;2022-10-16T12:49:36;9.75;;;4.60;;
43835;SDS011;39345;43.964;25.340;2022-10-16T12:52:22;8.05;;;4.20;;
43835;SDS011;39345;43.964;25.340;2022-10-16T12:54:51;12.23;;;5.38;;
43835;SDS011;39345;43.964;25.340;2022-10-16T13:10:47;9.10;;;4.63;;
43835;SDS011;39345;43.964;25.340;2022-10-16T13:13:21;9.35;;;4.75;;
43835;SDS011;39345;43.964;25.340;2022-10-16T13:18:58;8.02;;;4.50;;
43835;SDS011;39345;43.964;25.340;2022-10-16T13:28:59;7.25;;;4.30;;
43835;SDS011;39345;43.964;25.340;2022-10-16T13:31:27;8.27;;;4.45;;
43835;SDS011;39345;43.964;25.340;2022-10-16T13:33:56;17.83;;;4.95;;
43835;SDS011;39345;43.964;25.340;2022-10-16T13:39:28;8.30;;;5.95;;
43835;SDS011;39345;43.964;25.340;2022-10-16T13:41:57;8.00;;;4.10;;
43835;SDS011;39345;43.964;25.340;2022-10-16T13:44:42;8.82;;;4.18;;
43835;SDS011;39345;43.964;25.340;2022-10-16T13:47:21;7.43;;;4.82;;
43835;SDS011;39345;43.964;25.340;2022-10-16T13:50:00;8.07;;;5.20;;
43835;SDS011;39345;43.964;25.340;2022-10-16T13:52:28;13.25;;;6.28;;
43835;SDS011;39345;43.964;25.340;2022-10-16T13:54:56;23.35;;;15.77;;
43835;SDS011;39345;43.964;25.340;2022-10-16T13:57:28;10.02;;;4.97;;
43835;SDS011;39345;43.964;25.340;2022-10-16T13:59:55;7.32;;;4.85;;
43835;SDS011;39345;43.964;25.340;2022-10-16T14:02:30;22.95;;;15.07;;
43835;SDS011;39345;43.964;25.340;2022-10-16T14:05:01;13.88;;;8.25;;
43835;SDS011;39345;43.964;25.340;2022-10-16T14:07:30;11.50;;;7.38;;
43835;SDS011;39345;43.964;25.340;2022-10-16T14:10:00;8.50;;;5.35;;
43835;SDS011;39345;43.964;25.340;2022-10-16T14:12:29;7.40;;;5.30;;
43835;SDS011;39345;43.964;25.340;2022-10-16T14:14:57;10.75;;;5.55;;
43835;SDS011;39345;43.964;25.340;2022-10-16T14:17:26;9.05;;;5.30;;
43835;SDS011;39345;43.964;25.340;2022-10-16T14:19:55;9.40;;;5.43;;
43835;SDS011;39345;43.964;25.340;2022-10-16T14:22:31;13.52;;;7.85;;
43835;SDS011;39345;43.964;25.340;2022-10-16T14:25:00;10.70;;;5.53;;
43835;SDS011;39345;43.964;25.340;2022-10-16T14:32:52;8.60;;;5.43;;
43835;SDS011;39345;43.964;25.340;2022-10-16T14:37:57;14.32;;;7.55;;
43835;SDS011;39345;43.964;25.340;2022-10-16T14:40:32;12.60;;;7.00;;
43835;SDS011;39345;43.964;25.340;2022-10-16T14:43:03;39.40;;;23.85;;
43835;SDS011;39345;43.964;25.340;2022-10-16T14:45:32;51.97;;;33.95;;
43835;SDS011;39345;43.964;25.340;2022-10-16T14:48:05;34.55;;;22.27;;
43835;SDS011;39345;43.964;25.340;2022-10-16T14:50:34;33.28;;;16.05;;
43835;SDS011;39345;43.964;25.340;2022-10-16T14:53:04;11.50;;;6.72;;
43835;SDS011;39345;43.964;25.340;2022-10-16T14:55:36;10.75;;;6.38;;
43835;SDS011;39345;43.964;25.340;2022-10-16T14:58:03;18.25;;;8.30;;
43835;SDS011;39345;43.964;25.340;2022-10-16T15:00:31;15.02;;;7.75;;
43835;SDS011;39345;43.964;25.340;2022-10-16T15:02:58;19.40;;;10.35;;
43835;SDS011;39345;43.964;25.340;2022-10-16T15:05:26;35.60;;;18.67;;
43835;SDS011;39345;43.964;25.340;2022-10-16T15:07:54;23.15;;;11.88;;
43835;SDS011;39345;43.964;25.340;2022-10-16T15:10:24;17.45;;;9.20;;
43835;SDS011;39345;43.964;25.340;2022-10-16T15:12:52;29.60;;;11.55;;
43835;SDS011;39345;43.964;25.340;2022-10-16T15:17:54;21.35;;;10.07;;
43835;SDS011;39345;43.964;25.340;2022-10-16T15:20:24;23.95;;;9.73;;
43835;SDS011;39345;43.964;25.340;2022-10-16T15:22:52;16.52;;;9.18;;
43835;SDS011;39345;43.964;25.340;2022-10-16T15:27:53;19.05;;;9.38;;
43835;SDS011;39345;43.964;25.340;2022-10-16T15:30:21;11.95;;;7.18;;
43835;SDS011;39345;43.964;25.340;2022-10-16T15:32:48;18.98;;;7.00;;
43835;SDS011;39345;43.964;25.340;2022-10-16T15:35:16;11.10;;;7.40;;
43835;SDS011;39345;43.964;25.340;2022-10-16T15:37:43;15.45;;;7.25;;
43835;SDS011;39345;43.964;25.340;2022-10-16T15:40:11;17.23;;;8.68;;
43835;SDS011;39345;43.964;25.340;2022-10-16T15:42:39;16.33;;;8.35;;
43835;SDS011;39345;43.964;25.340;2022-10-16T15:45:06;17.92;;;8.48;;
43835;SDS011;39345;43.964;25.340;2022-10-16T15:47:34;15.75;;;8.63;;
43835;SDS011;39345;43.964;25.340;2022-10-16T15:50:02;14.55;;;7.72;;
43835;SDS011;39345;43.964;25.340;2022-10-16T15:52:29;21.85;;;9.23;;
43835;SDS011;39345;43.964;25.340;2022-10-16T15:54:58;17.27;;;10.25;;
43835;SDS011;39345;43.964;25.340;2022-10-16T15:57:27;19.25;;;9.93;;
43835;SDS011;39345;43.964;25.340;2022-10-16T15:59:55;21.13;;;9.95;;
43835;SDS011;39345;43.964;25.340;2022-10-16T16:02:23;19.83;;;10.82;;
43835;SDS011;39345;43.964;25.340;2022-10-16T16:04:51;21.98;;;10.77;;
43835;SDS011;39345;43.964;25.340;2022-10-16T16:07:18;23.75;;;10.63;;
43835;SDS011;39345;43.964;25.340;2022-10-16T16:09:46;22.65;;;10.35;;
43835;SDS011;39345;43.964;25.340;2022-10-16T16:12:13;23.40;;;10.50;;
43835;SDS011;39345;43.964;25.340;2022-10-16T16:14:41;18.40;;;10.35;;
43835;SDS011;39345;43.964;25.340;2022-10-16T16:17:15;16.27;;;10.77;;
43835;SDS011;39345;43.964;25.340;2022-10-16T16:19:42;18.70;;;10.00;;
43835;SDS011;39345;43.964;25.340;2022-10-16T16:22:10;17.77;;;9.40;;
43835;SDS011;39345;43.964;25.340;2022-10-16T16:24:38;18.20;;;10.15;;
43835;SDS011;39345;43.964;25.340;2022-10-16T16:27:06;21.30;;;10.15;;
43835;SDS011;39345;43.964;25.340;2022-10-16T16:29:34;17.33;;;10.10;;
43835;SDS011;39345;43.964;25.340;2022-10-16T16:32:01;12.80;;;9.32;;
43835;SDS011;39345;43.964;25.340;2022-10-16T16:34:29;14.57;;;8.43;;
43835;SDS011;39345;43.964;25.340;2022-10-16T16:36:57;15.73;;;8.90;;
43835;SDS011;39345;43.964;25.340;2022-10-16T16:39:24;16.15;;;8.77;;
43835;SDS011;39345;43.964;25.340;2022-10-16T16:41:52;15.25;;;9.30;;